Архив погоды в Лальске

Метеограмма Лальск
Вторник, 14 Августа
Время местн. Темп Ветер Видим Явления Облачность нижн/средн/верх Атм. давл. Влжн Точка росы ВНГО R Сост. почвы Tg s
Напр Скр Прв ур.ст ур.м изм
15:00 +18.6° Ю-З 2 6 20 км - облачно с прояснениями 748 756 +0.8 62% +11.3° 600 м - - - -
12:00 +19.6° З 4 6 20 км - преимущественно облачно 748 755 +0.5 49% +8.5° 600 м - - - -
09:00 +16.1° З 4 6 20 км - облачно с прояснениями 747 755 +1.1 79% +12.5° 600 м - - - -
06:00 +13.6° З 3 5 20 км - преимущественно облачно 746 754 +1.4 89% +11.8° 600 м - Влажная (без луж) - -
03:00 +13° З 3 4 50 км - преимущественно облачно 745 752 +0.5 93% +11.9° 1 км - - - -
00:00 +12.6° З 2 3 50 км - облачно с прояснениями 744 752 +0.1 92% +11.3° 600 м - - - -
Понедельник, 13 Августа
Время местн. Темп Ветер Видим Явления Облачность нижн/средн/верх Атм. давл. Влжн Точка росы ВНГО R Сост. почвы Tg s
Напр Скр Прв ур.ст ур.м изм
21:00 +13.7° З,Ю-З 2 5 20 км небо без изменений {ливневые осадки} преимущественно облачно 744 752 +0.1 88% +11.7° 600 м - - - -
18:00 +14.4° З 1 3 27 км ливневый дождь преимущественно облачно 744 752 +0.8 90% +12.7° 600 м - - - -
15:00 +20.3° З 5 9 20 км - преимущественно облачно 743 751 +0.2 48% +8.9° 600 м - - - -
12:00 +21° З 7 12 20 км - облачно с прояснениями 743 750 -0.2 45% +8.6° 1.5 км - - - -
09:00 +20.6° З 4 9 20 км - переменная облачность 743 751 -0.4 54% +11° 1.5 км - - - -
06:00 +17.8° З,Ю-З 2 4 20 км - преимущественно облачно 744 751 -0.8 82% +14.7° 600 м - Влажная (без луж) - -
03:00 +18.2° Ю-З 1 3 20 км небо без изменений {ливневые осадки} переменная облачность 745 752 -1.1 86% +15.9° более 2.5 км - - - -
00:00 +19.1° Ю 1 1 50 км небо без изменений {ливневые осадки} переменная облачность 746 753 -1.1 92% +17.7° - - - - -
Воскресенье, 12 Августа
Время местн. Темп Ветер Видим Явления Облачность нижн/средн/верх Атм. давл. Влжн Точка росы ВНГО R Сост. почвы Tg s
Напр Скр Прв ур.ст ур.м изм
21:00 +21.6° З,Ю-З 1 2 20 км - переменная облачность 747 754 -1 82% +18.3° 600 м - - - -
18:00 +26.6° З 1 2 20 км - переменная облачность 748 755 -1.1 62% +18.7° 1.5 км - - - -
15:00 +26.8° З 4 7 20 км - преимущественно облачно 749 756 -0.7 55% +17° 600 м - - - -
12:00 +24.6° З 3 5 20 км - переменная облачность 750 757 -0.5 65% +17.6° - - - - -
09:00 +21.7° З 3 5 20 км - преимущественно облачно 750 757 -0.2 74% +16.9° 1 км - - - -
06:00 +18° З,Ю-З 2 3 20 км - преимущественно облачно 750 758 -0.3 81% +14.7° - - Влажная (без луж) - -
03:00 +17.2° З 1 2 20 км - преимущественно облачно 750 758 -0.4 83% +14.2° - - - - -
00:00 +21.1° З 2 4 50 км - преимущественно облачно 751 758 -0.5 67% +14.7° 600 м - - - -
Суббота, 11 Августа
Время местн. Темп Ветер Видим Явления Облачность нижн/средн/верх Атм. давл. Влжн Точка росы ВНГО R Сост. почвы Tg s
Напр Скр Прв ур.ст ур.м изм
21:00 +22.1° З 2 4 20 км - преимущественно облачно 751 759 +0.3 67% +15.8° 600 м - - - -
18:00 +26.5° З 3 5 20 км - преимущественно облачно 751 758 -0.5 46% +13.9° 1 км - - - -
15:00 +28° З,С-З 5 10 20 км небо без изменений {ливневые осадки} переменная облачность 751 759 -0.9 41% +13.5° 1.5 км - - - -
12:00 +26.2° З 2 4 20 км небо без изменений {ливневые осадки} облачно с прояснениями 752 760 -1.8 57% +17.1° более 2.5 км - - - -